<?xml version="1.0" encoding="UTF-8"?>
 <gpx
 xmlns="http://www.topografix.com/GPX/1/1"
 version="1.1"
 creator="Wikipedia"
 xmlns:xsi="http://www.w3.org/2001/XMLSchema-instance"
 xsi:schemaLocation="http://www.topografix.com/GPX/1/1 http://www.topografix.com/GPX/1/1/gpx.xsd">
	<time>2026-07-20T09:28:27Z</time>
	<metadata>
 		<name>gps</name>
 	</metadata>
	<trk>
		<name>exercise</name>
		<trkseg>
			<trkpt lat="54.944173167" lon="82.880818667">
				<time>2026-07-20T09:28:27Z</time>
				<ele>132.3</ele>
			</trkpt>
			<trkpt lat="54.9441722" lon="82.8808215">
				<time>2026-07-20T09:28:31Z</time>
				<ele>131.644</ele>
			</trkpt>
			<trkpt lat="54.9441722" lon="82.8808215">
				<time>2026-07-20T09:28:37Z</time>
				<ele>131.644</ele>
			</trkpt>
			<trkpt lat="54.9441722" lon="82.8808215">
				<time>2026-07-20T09:28:42Z</time>
				<ele>131.644</ele>
			</trkpt>
			<trkpt lat="54.9441722" lon="82.8808215">
				<time>2026-07-20T09:28:47Z</time>
				<ele>131.644</ele>
			</trkpt>
			<trkpt lat="54.9441722" lon="82.8808215">
				<time>2026-07-20T09:28:52Z</time>
				<ele>131.644</ele>
			</trkpt>
			<trkpt lat="54.9441722" lon="82.8808215">
				<time>2026-07-20T09:28:57Z</time>
				<ele>131.644</ele>
			</trkpt>
			<trkpt lat="54.9441722" lon="82.8808215">
				<time>2026-07-20T09:29:02Z</time>
				<ele>131.644</ele>
			</trkpt>
			<trkpt lat="54.9441722" lon="82.8808215">
				<time>2026-07-20T09:29:07Z</time>
				<ele>131.644</ele>
			</trkpt>
			<trkpt lat="54.9441722" lon="82.8808215">
				<time>2026-07-20T09:29:12Z</time>
				<ele>131.644</ele>
			</trkpt>
			<trkpt lat="54.9441722" lon="82.8808215">
				<time>2026-07-20T09:29:17Z</time>
				<ele>131.644</ele>
			</trkpt>
			<trkpt lat="54.9441722" lon="82.8808215">
				<time>2026-07-20T09:29:22Z</time>
				<ele>131.644</ele>
			</trkpt>
			<trkpt lat="54.9441722" lon="82.8808215">
				<time>2026-07-20T09:29:27Z</time>
				<ele>131.644</ele>
			</trkpt>
			<trkpt lat="54.944206052" lon="82.880801519">
				<time>2026-07-20T09:29:34Z</time>
				<ele>126.271</ele>
			</trkpt>
			<trkpt lat="54.944206052" lon="82.880801519">
				<time>2026-07-20T09:29:39Z</time>
				<ele>126.271</ele>
			</trkpt>
			<trkpt lat="54.944206052" lon="82.880801519">
				<time>2026-07-20T09:29:44Z</time>
				<ele>126.271</ele>
			</trkpt>
			<trkpt lat="54.944206052" lon="82.880801519">
				<time>2026-07-20T09:29:49Z</time>
				<ele>126.271</ele>
			</trkpt>
			<trkpt lat="54.944206052" lon="82.880801519">
				<time>2026-07-20T09:29:54Z</time>
				<ele>126.271</ele>
			</trkpt>
			<trkpt lat="54.944206052" lon="82.880801519">
				<time>2026-07-20T09:29:59Z</time>
				<ele>126.271</ele>
			</trkpt>
			<trkpt lat="54.944206052" lon="82.880801519">
				<time>2026-07-20T09:30:04Z</time>
				<ele>126.271</ele>
			</trkpt>
			<trkpt lat="54.944206052" lon="82.880801519">
				<time>2026-07-20T09:30:09Z</time>
				<ele>126.271</ele>
			</trkpt>
			<trkpt lat="54.944206052" lon="82.880801519">
				<time>2026-07-20T09:30:14Z</time>
				<ele>126.271</ele>
			</trkpt>
			<trkpt lat="54.944206052" lon="82.880801519">
				<time>2026-07-20T09:30:19Z</time>
				<ele>126.271</ele>
			</trkpt>
			<trkpt lat="54.944206052" lon="82.880801519">
				<time>2026-07-20T09:30:24Z</time>
				<ele>126.271</ele>
			</trkpt>
			<trkpt lat="54.944206052" lon="82.880801519">
				<time>2026-07-20T09:30:29Z</time>
				<ele>126.271</ele>
			</trkpt>
			<trkpt lat="54.944206052" lon="82.880801519">
				<time>2026-07-20T09:30:34Z</time>
				<ele>126.271</ele>
			</trkpt>
			<trkpt lat="54.944161939" lon="82.880825374">
				<time>2026-07-20T09:30:41Z</time>
				<ele>129.484</ele>
			</trkpt>
			<trkpt lat="54.944161939" lon="82.880825374">
				<time>2026-07-20T09:30:46Z</time>
				<ele>129.484</ele>
			</trkpt>
			<trkpt lat="54.944161939" lon="82.880825374">
				<time>2026-07-20T09:30:51Z</time>
				<ele>129.484</ele>
			</trkpt>
			<trkpt lat="54.944161939" lon="82.880825374">
				<time>2026-07-20T09:30:56Z</time>
				<ele>129.484</ele>
			</trkpt>
			<trkpt lat="54.944161939" lon="82.880825374">
				<time>2026-07-20T09:31:01Z</time>
				<ele>129.484</ele>
			</trkpt>
			<trkpt lat="54.944161939" lon="82.880825374">
				<time>2026-07-20T09:31:06Z</time>
				<ele>129.484</ele>
			</trkpt>
			<trkpt lat="54.944161939" lon="82.880825374">
				<time>2026-07-20T09:31:11Z</time>
				<ele>129.484</ele>
			</trkpt>
			<trkpt lat="54.944161939" lon="82.880825374">
				<time>2026-07-20T09:31:16Z</time>
				<ele>129.484</ele>
			</trkpt>
			<trkpt lat="54.944161939" lon="82.880825374">
				<time>2026-07-20T09:31:21Z</time>
				<ele>129.484</ele>
			</trkpt>
			<trkpt lat="54.944161939" lon="82.880825374">
				<time>2026-07-20T09:31:26Z</time>
				<ele>129.484</ele>
			</trkpt>
			<trkpt lat="54.944161939" lon="82.880825374">
				<time>2026-07-20T09:31:31Z</time>
				<ele>129.484</ele>
			</trkpt>
			<trkpt lat="54.944161939" lon="82.880825374">
				<time>2026-07-20T09:31:36Z</time>
				<ele>129.484</ele>
			</trkpt>
			<trkpt lat="54.944161939" lon="82.880825374">
				<time>2026-07-20T09:31:41Z</time>
				<ele>129.484</ele>
			</trkpt>
			<trkpt lat="54.94419926" lon="82.880717805">
				<time>2026-07-20T09:31:48Z</time>
				<ele>128.658</ele>
			</trkpt>
			<trkpt lat="54.94419926" lon="82.880717805">
				<time>2026-07-20T09:31:53Z</time>
				<ele>128.658</ele>
			</trkpt>
			<trkpt lat="54.94419926" lon="82.880717805">
				<time>2026-07-20T09:31:58Z</time>
				<ele>128.658</ele>
			</trkpt>
			<trkpt lat="54.94419926" lon="82.880717805">
				<time>2026-07-20T09:32:03Z</time>
				<ele>128.658</ele>
			</trkpt>
			<trkpt lat="54.94419926" lon="82.880717805">
				<time>2026-07-20T09:32:08Z</time>
				<ele>128.658</ele>
			</trkpt>
			<trkpt lat="54.94419926" lon="82.880717805">
				<time>2026-07-20T09:32:13Z</time>
				<ele>128.658</ele>
			</trkpt>
			<trkpt lat="54.94419926" lon="82.880717805">
				<time>2026-07-20T09:32:18Z</time>
				<ele>128.658</ele>
			</trkpt>
			<trkpt lat="54.94419926" lon="82.880717805">
				<time>2026-07-20T09:32:23Z</time>
				<ele>128.658</ele>
			</trkpt>
			<trkpt lat="54.94419926" lon="82.880717805">
				<time>2026-07-20T09:32:28Z</time>
				<ele>128.658</ele>
			</trkpt>
			<trkpt lat="54.94419926" lon="82.880717805">
				<time>2026-07-20T09:32:33Z</time>
				<ele>128.658</ele>
			</trkpt>
			<trkpt lat="54.94419926" lon="82.880717805">
				<time>2026-07-20T09:32:38Z</time>
				<ele>128.658</ele>
			</trkpt>
			<trkpt lat="54.94419926" lon="82.880717805">
				<time>2026-07-20T09:32:43Z</time>
				<ele>128.658</ele>
			</trkpt>
			<trkpt lat="54.94419926" lon="82.880717805">
				<time>2026-07-20T09:32:48Z</time>
				<ele>128.658</ele>
			</trkpt>
			<trkpt lat="54.944199902" lon="82.880739849">
				<time>2026-07-20T09:32:57Z</time>
				<ele>130.049</ele>
			</trkpt>
			<trkpt lat="54.944199902" lon="82.880739849">
				<time>2026-07-20T09:33:02Z</time>
				<ele>130.049</ele>
			</trkpt>
			<trkpt lat="54.944199902" lon="82.880739849">
				<time>2026-07-20T09:33:07Z</time>
				<ele>130.049</ele>
			</trkpt>
			<trkpt lat="54.944199902" lon="82.880739849">
				<time>2026-07-20T09:33:12Z</time>
				<ele>130.049</ele>
			</trkpt>
			<trkpt lat="54.944199902" lon="82.880739849">
				<time>2026-07-20T09:33:17Z</time>
				<ele>130.049</ele>
			</trkpt>
			<trkpt lat="54.944199902" lon="82.880739849">
				<time>2026-07-20T09:33:22Z</time>
				<ele>130.049</ele>
			</trkpt>
			<trkpt lat="54.944199902" lon="82.880739849">
				<time>2026-07-20T09:33:27Z</time>
				<ele>130.049</ele>
			</trkpt>
			<trkpt lat="54.944199902" lon="82.880739849">
				<time>2026-07-20T09:33:32Z</time>
				<ele>130.049</ele>
			</trkpt>
			<trkpt lat="54.944199902" lon="82.880739849">
				<time>2026-07-20T09:33:37Z</time>
				<ele>130.049</ele>
			</trkpt>
			<trkpt lat="54.944199902" lon="82.880739849">
				<time>2026-07-20T09:33:42Z</time>
				<ele>130.049</ele>
			</trkpt>
			<trkpt lat="54.944199902" lon="82.880739849">
				<time>2026-07-20T09:33:47Z</time>
				<ele>130.049</ele>
			</trkpt>
			<trkpt lat="54.944199902" lon="82.880739849">
				<time>2026-07-20T09:33:52Z</time>
				<ele>130.049</ele>
			</trkpt>
			<trkpt lat="54.944199902" lon="82.880739849">
				<time>2026-07-20T09:33:57Z</time>
				<ele>130.049</ele>
			</trkpt>
			<trkpt lat="54.944166961" lon="82.880728348">
				<time>2026-07-20T09:34:04Z</time>
				<ele>129.019</ele>
			</trkpt>
			<trkpt lat="54.944166961" lon="82.880728348">
				<time>2026-07-20T09:34:09Z</time>
				<ele>129.019</ele>
			</trkpt>
			<trkpt lat="54.944166961" lon="82.880728348">
				<time>2026-07-20T09:34:14Z</time>
				<ele>129.019</ele>
			</trkpt>
			<trkpt lat="54.944166961" lon="82.880728348">
				<time>2026-07-20T09:34:19Z</time>
				<ele>129.019</ele>
			</trkpt>
			<trkpt lat="54.944166961" lon="82.880728348">
				<time>2026-07-20T09:34:24Z</time>
				<ele>129.019</ele>
			</trkpt>
			<trkpt lat="54.944166961" lon="82.880728348">
				<time>2026-07-20T09:34:29Z</time>
				<ele>129.019</ele>
			</trkpt>
			<trkpt lat="54.944166961" lon="82.880728348">
				<time>2026-07-20T09:34:34Z</time>
				<ele>129.019</ele>
			</trkpt>
			<trkpt lat="54.944166961" lon="82.880728348">
				<time>2026-07-20T09:34:39Z</time>
				<ele>129.019</ele>
			</trkpt>
			<trkpt lat="54.944166961" lon="82.880728348">
				<time>2026-07-20T09:34:44Z</time>
				<ele>129.019</ele>
			</trkpt>
			<trkpt lat="54.944166961" lon="82.880728348">
				<time>2026-07-20T09:34:49Z</time>
				<ele>129.019</ele>
			</trkpt>
			<trkpt lat="54.944166961" lon="82.880728348">
				<time>2026-07-20T09:34:54Z</time>
				<ele>129.019</ele>
			</trkpt>
			<trkpt lat="54.944166961" lon="82.880728348">
				<time>2026-07-20T09:34:54Z</time>
				<ele>129.019</ele>
			</trkpt>
			<trkpt lat="54.944166961" lon="82.880728348">
				<time>2026-07-20T09:34:59Z</time>
				<ele>129.019</ele>
			</trkpt>
			<trkpt lat="54.944166961" lon="82.880728348">
				<time>2026-07-20T09:34:59Z</time>
				<ele>129.019</ele>
			</trkpt>
			<trkpt lat="54.944166961" lon="82.880728348">
				<time>2026-07-20T09:35:04Z</time>
				<ele>129.019</ele>
			</trkpt>
			<trkpt lat="54.94416356" lon="82.880731082">
				<time>2026-07-20T09:35:13Z</time>
				<ele>123.616</ele>
			</trkpt>
		</trkseg>
	</trk>
</gpx>
